Terminal Aerodrome Forecast
Issued by NWS Boise, ID

Home | Current Version | Previous Version | Text Only | Print | Product List | Glossary On
Versions: 1 2 3 4 5 6 7 8 9 10 11 12 13 14 15 16 17 18 19 20 21 22 23 24 25 26 27 28 29 30 31 32 33 34
799
FTUS45 KBOI 221139
TAFBOI
TAF
KBOI 221139Z 2212/2312 13013KT P6SM VCSH BKN060 OVC090
      TEMPO 2212/2216 -SHRA OVC060
     FM222000 VRB06KT P6SM BKN045 OVC060
     FM230500 29005KT P6SM SCT100=

USA.gov is the U.S. government's official web portal to all federal, state and local government web resources and services.